Time;durP1;ratioP1;P1;durP2;ratioP2;P2;SDS_P1;SDS_P2;PMS_P1;PMS_P2;Temp;Humidity;BMP_temperature;BMP_pressure;BME280_temperature;BME280_humidity;BME280_pressure;Samples;Min_cycle;Max_cycle;Signal;HPM_P1;HPM_P2
2021/05/02 00:01:38;;;;;;;63.83;32.03;;;9.60;99.90;;;;;;5051102;28;20033;-80
2021/05/02 00:04:05;;;;;;;62.33;31.55;;;9.60;99.90;;;;;;5058001;28;20491;-80
2021/05/02 00:06:32;;;;;;;62.15;28.65;;;9.50;99.90;;;;;;5070688;28;20048;-80
2021/05/02 00:08:58;;;;;;;65.63;31.73;;;9.50;99.90;;;;;;5072557;28;20067;-80
2021/05/02 00:11:24;;;;;;;63.58;31.70;;;9.50;99.90;;;;;;5070563;28;20031;-80
2021/05/02 00:13:50;;;;;;;65.72;32.67;;;9.50;99.90;;;;;;5069111;28;20132;-80
2021/05/02 00:16:16;;;;;;;64.60;31.23;;;9.50;99.90;;;;;;5070750;28;20145;-79
2021/05/02 00:18:42;;;;;;;63.60;32.80;;;9.50;99.90;;;;;;5070467;28;20027;-80
2021/05/02 00:21:10;;;;;;;61.10;30.42;;;9.50;99.90;;;;;;5070408;28;20028;-80
2021/05/02 00:23:38;;;;;;;64.47;31.10;;;9.50;99.90;;;;;;5068823;28;20032;-80
2021/05/02 00:26:05;;;;;;;64.22;31.55;;;9.40;99.90;;;;;;5071631;28;20485;-80
2021/05/02 00:28:33;;;;;;;62.63;31.08;;;9.40;99.90;;;;;;5072441;28;20108;-80
2021/05/02 00:31:03;;;;;;;70.15;32.63;;;9.40;99.90;;;;;;5072389;28;20393;-79
2021/05/02 00:33:29;;;;;;;67.95;31.10;;;9.40;99.90;;;;;;5072302;28;20040;-80
2021/05/02 00:35:55;;;;;;;76.78;33.90;;;9.30;99.90;;;;;;5071102;28;20016;-80
2021/05/02 00:38:21;;;;;;;71.72;35.28;;;9.40;99.90;;;;;;5072298;28;20025;-79
2021/05/02 00:40:55;;;;;;;70.13;33.20;;;9.40;99.90;;;;;;5072315;28;20043;-79
2021/05/02 00:43:33;;;;;;;67.07;33.63;;;9.30;99.90;;;;;;5072266;28;20501;-80
2021/05/02 00:46:31;;;;;;;62.33;32.30;;;9.30;99.90;;;;;;5072337;28;20024;-80
2021/05/02 00:49:12;;;;;;;65.82;30.75;;;9.30;99.90;;;;;;5070287;28;20029;-80
2021/05/02 00:51:42;;;;;;;76.70;32.78;;;9.20;99.90;;;;;;5072265;28;20027;-80
2021/05/02 00:54:14;;;;;;;67.70;32.90;;;9.10;99.90;;;;;;5071720;28;20131;-80
2021/05/02 00:56:59;;;;;;;72.22;34.47;;;9.10;99.90;;;;;;5070915;28;20035;-80
2021/05/02 00:59:28;;;;;;;69.07;32.20;;;9.10;99.90;;;;;;5072591;28;20481;-80
2021/05/02 01:01:54;;;;;;;65.20;32.38;;;9.10;99.90;;;;;;5072059;28;20025;-79
2021/05/02 01:04:25;;;;;;;61.13;31.38;;;9.10;99.90;;;;;;5071241;28;20474;-80
2021/05/02 01:06:55;;;;;;;62.63;32.80;;;9.10;99.90;;;;;;5074416;28;20047;-80
2021/05/02 01:09:24;;;;;;;59.28;27.02;;;9.00;99.90;;;;;;5074420;28;20394;-80
2021/05/02 01:11:51;;;;;;;70.75;31.90;;;9.00;99.90;;;;;;5075637;28;20025;-80
2021/05/02 01:14:22;;;;;;;74.68;35.53;;;9.10;99.90;;;;;;5074313;28;20158;-80
2021/05/02 01:16:50;;;;;;;70.47;33.70;;;9.10;99.90;;;;;;5074198;28;20032;-80
2021/05/02 01:19:16;;;;;;;59.00;29.35;;;9.10;99.90;;;;;;5074162;28;20059;-80
2021/05/02 01:21:42;;;;;;;70.85;31.98;;;9.00;99.90;;;;;;5074098;28;20482;-80
2021/05/02 01:24:10;;;;;;;71.05;31.05;;;9.10;99.90;;;;;;5075166;28;20024;-79
2021/05/02 01:26:40;;;;;;;68.80;31.80;;;9.00;99.90;;;;;;5075307;28;20029;-79
2021/05/02 01:29:05;;;;;;;69.35;31.73;;;9.00;99.90;;;;;;5075350;28;20039;-80
2021/05/02 01:31:32;;;;;;;73.55;32.92;;;9.00;99.90;;;;;;5075225;28;20474;-80
2021/05/02 01:33:59;;;;;;;75.93;33.65;;;9.00;99.90;;;;;;5075114;28;20036;-79
2021/05/02 01:36:25;;;;;;;78.97;34.42;;;9.00;99.90;;;;;;5075230;28;20044;-80
2021/05/02 01:38:52;;;;;;;76.95;35.78;;;9.00;99.90;;;;;;5075050;28;20078;-79
2021/05/02 01:41:18;;;;;;;78.28;34.85;;;9.00;99.90;;;;;;5075078;28;20056;-79
2021/05/02 01:43:44;;;;;;;74.72;34.72;;;8.90;99.90;;;;;;5074990;28;20021;-79
2021/05/02 01:46:14;;;;;;;83.85;37.67;;;8.90;99.90;;;;;;5075042;28;20385;-79
2021/05/02 01:48:40;;;;;;;83.40;38.60;;;8.90;99.90;;;;;;5074905;28;20016;-80
2021/05/02 01:51:09;;;;;;;80.82;36.70;;;8.80;99.90;;;;;;5074606;28;20016;-79
2021/05/02 01:53:37;;;;;;;76.68;34.42;;;8.80;99.90;;;;;;5074754;28;20040;-79
2021/05/02 01:56:03;;;;;;;81.55;39.22;;;8.80;99.90;;;;;;5074788;28;20381;-80
2021/05/02 01:58:30;;;;;;;75.20;34.38;;;8.80;99.90;;;;;;5074837;28;20032;-79
2021/05/02 02:01:09;;;;;;;87.55;36.53;;;8.70;99.90;;;;;;5074336;28;20033;-79
2021/05/02 02:03:35;;;;;;;87.45;36.72;;;8.70;99.90;;;;;;5074748;28;20021;-79
2021/05/02 02:06:01;;;;;;;87.88;38.00;;;8.70;99.90;;;;;;5074574;28;20021;-80
2021/05/02 02:08:27;;;;;;;88.72;35.72;;;8.70;99.90;;;;;;5074575;28;20048;-80
2021/05/02 02:10:53;;;;;;;96.82;42.97;;;8.70;99.90;;;;;;5074484;28;20048;-79
2021/05/02 02:13:19;;;;;;;73.10;32.92;;;8.60;99.90;;;;;;5073994;28;20029;-80
2021/05/02 02:15:47;;;;;;;86.28;36.25;;;8.60;99.90;;;;;;5072930;28;20067;-80
2021/05/02 02:18:16;;;;;;;89.75;36.67;;;8.60;99.90;;;;;;5074252;28;20027;-80
2021/05/02 02:20:52;;;;;;;82.25;38.15;;;8.60;99.90;;;;;;5073010;28;20024;-80
2021/05/02 02:23:33;;;;;;;84.22;37.55;;;8.50;99.90;;;;;;5074217;28;20048;-79
2021/05/02 02:26:36;;;;;;;91.93;39.70;;;8.60;99.90;;;;;;5072905;28;20055;-79
2021/05/02 02:29:03;;;;;;;90.70;38.53;;;8.60;99.90;;;;;;5072608;28;20042;-79
2021/05/02 02:31:33;;;;;;;86.45;35.20;;;8.60;99.90;;;;;;5072804;28;20013;-80
2021/05/02 02:33:59;;;;;;;90.82;37.47;;;8.50;99.90;;;;;;5073823;28;20085;-79
2021/05/02 02:36:25;;;;;;;74.80;32.83;;;8.60;99.90;;;;;;5073977;28;20514;-80
2021/05/02 02:38:52;;;;;;;98.65;41.50;;;8.60;99.90;;;;;;5073923;28;20055;-79
2021/05/02 02:41:18;;;;;;;95.50;39.17;;;8.60;99.90;;;;;;5072520;28;20416;-80
2021/05/02 02:43:56;;;;;;;92.82;39.08;;;8.60;99.90;;;;;;5072210;28;20060;-79
2021/05/02 02:46:23;;;;;;;95.18;39.25;;;8.60;99.90;;;;;;5073766;28;20027;-79
2021/05/02 02:48:57;;;;;;;99.60;42.03;;;8.60;99.90;;;;;;5073701;28;20028;-79
2021/05/02 02:51:25;;;;;;;101.53;41.30;;;8.60;99.90;;;;;;5073662;28;20028;-79
2021/05/02 02:53:52;;;;;;;88.50;37.45;;;8.60;99.90;;;;;;5072266;28;20033;-79
2021/05/02 02:56:20;;;;;;;90.72;40.00;;;8.50;99.90;;;;;;5073561;28;20025;-80
2021/05/02 02:59:21;;;;;;;110.50;43.22;;;8.50;99.90;;;;;;5073400;28;20028;-80
2021/05/02 03:01:48;;;;;;;104.70;43.90;;;8.50;99.90;;;;;;5055200;28;20036;-80
2021/05/02 03:04:18;;;;;;;94.45;42.55;;;8.60;99.90;;;;;;5073395;28;20128;-80
2021/05/02 03:06:45;;;;;;;114.30;44.80;;;8.60;99.90;;;;;;5073384;28;20062;-80
2021/05/02 03:09:15;;;;;;;96.57;38.22;;;8.60;99.90;;;;;;5073370;28;20025;-79
2021/05/02 03:11:42;;;;;;;108.78;43.05;;;8.60;99.90;;;;;;5072064;28;20029;-80
2021/05/02 03:14:10;;;;;;;97.30;38.45;;;8.60;99.90;;;;;;5071709;28;20036;-80
2021/05/02 03:16:37;;;;;;;104.10;42.50;;;8.60;99.90;;;;;;5071718;28;20025;-80
2021/05/02 03:19:27;;;;;;;106.05;38.55;;;8.60;99.90;;;;;;5073064;28;20107;-80
2021/05/02 03:22:08;;;;;;;103.93;39.35;;;8.60;99.90;;;;;;5073152;28;20049;-80
2021/05/02 03:24:38;;;;;;;98.93;42.05;;;8.60;99.90;;;;;;5071939;28;20032;-79
2021/05/02 03:27:22;;;;;;;96.65;40.03;;;8.60;99.90;;;;;;5071241;28;20024;-79
2021/05/02 03:29:48;;;;;;;98.60;40.90;;;8.60;99.90;;;;;;5073118;28;20386;-79
2021/05/02 03:32:15;;;;;;;96.68;41.28;;;8.60;99.90;;;;;;5072984;28;20024;-80
2021/05/02 03:34:43;;;;;;;94.13;39.92;;;8.70;99.90;;;;;;5073080;28;20382;-79
2021/05/02 03:37:18;;;;;;;89.78;36.67;;;8.70;99.90;;;;;;5072950;28;20067;-80
2021/05/02 03:39:49;;;;;;;87.32;37.85;;;8.70;99.90;;;;;;5072961;28;20024;-80
2021/05/02 03:42:16;;;;;;;91.20;36.53;;;8.70;99.90;;;;;;5072830;28;20025;-80
2021/05/02 03:44:42;;;;;;;90.38;36.92;;;8.70;99.90;;;;;;5072897;28;20052;-79
2021/05/02 03:47:07;;;;;;;84.57;32.08;;;8.80;99.90;;;;;;5072827;28;20052;-80
2021/05/02 03:49:34;;;;;;;84.20;38.13;;;8.80;99.90;;;;;;5072826;28;20053;-80
2021/05/02 03:52:01;;;;;;;87.30;39.17;;;8.80;99.90;;;;;;5072744;28;20511;-80
2021/05/02 03:54:27;;;;;;;86.78;37.22;;;8.80;99.90;;;;;;5072717;28;20058;-80
2021/05/02 03:56:53;;;;;;;83.30;38.50;;;8.80;99.90;;;;;;5071474;28;20565;-80
2021/05/02 03:59:22;;;;;;;96.25;36.90;;;8.80;99.90;;;;;;5071404;28;20060;-80
2021/05/02 04:02:07;;;;;;;97.97;41.85;;;8.80;99.90;;;;;;5072673;28;20032;-80
2021/05/02 04:04:34;;;;;;;90.13;36.97;;;8.80;99.90;;;;;;5071432;28;20478;-80
2021/05/02 04:07:10;;;;;;;84.35;38.53;;;8.90;99.90;;;;;;5072593;28;20394;-80
2021/05/02 04:09:36;;;;;;;85.18;35.30;;;8.90;99.90;;;;;;5072760;28;20459;-81
2021/05/02 04:12:03;;;;;;;86.28;38.72;;;8.90;99.90;;;;;;5072514;28;20028;-80
2021/05/02 04:14:29;;;;;;;75.72;34.08;;;8.90;99.90;;;;;;5071175;28;20036;-80
2021/05/02 04:17:00;;;;;;;84.93;36.22;;;8.90;99.90;;;;;;5071268;28;20389;-80
2021/05/02 04:19:27;;;;;;;83.22;36.03;;;8.90;99.90;;;;;;5071294;28;20028;-80
2021/05/02 04:21:53;;;;;;;87.18;37.17;;;8.90;99.90;;;;;;5072502;28;20016;-79
2021/05/02 04:24:20;;;;;;;88.85;36.17;;;8.90;99.90;;;;;;5072419;28;20028;-79
2021/05/02 04:26:47;;;;;;;93.57;38.78;;;8.90;99.90;;;;;;5072451;28;20095;-80
2021/05/02 04:29:12;;;;;;;85.47;38.63;;;9.00;99.90;;;;;;5072447;28;20032;-80
2021/05/02 04:31:39;;;;;;;80.97;36.03;;;9.00;99.90;;;;;;5072405;28;20039;-80
2021/05/02 04:34:05;;;;;;;80.85;35.72;;;9.00;99.90;;;;;;5071018;28;20043;-79
2021/05/02 04:36:31;;;;;;;86.18;38.08;;;9.00;99.90;;;;;;5072425;28;20020;-80
2021/05/02 04:38:57;;;;;;;83.28;40.00;;;9.00;99.90;;;;;;5073700;28;20501;-79
2021/05/02 04:41:23;;;;;;;74.70;32.55;;;9.00;99.90;;;;;;5074901;28;20024;-79
2021/05/02 04:43:49;;;;;;;83.57;36.13;;;9.00;99.90;;;;;;5076104;28;20023;-79
2021/05/02 04:46:15;;;;;;;83.63;38.35;;;9.00;99.90;;;;;;5076071;28;20048;-80
2021/05/02 04:48:42;;;;;;;77.30;36.40;;;9.00;99.90;;;;;;5074702;28;20032;-80
2021/05/02 04:51:08;;;;;;;86.95;35.75;;;9.10;99.90;;;;;;5075991;28;20020;-80
2021/05/02 04:53:34;;;;;;;80.45;32.67;;;9.10;99.90;;;;;;5075856;28;20429;-79
2021/05/02 04:56:00;;;;;;;77.25;33.97;;;9.10;99.90;;;;;;5074655;28;20033;-79
2021/05/02 04:58:26;;;;;;;74.78;34.10;;;9.10;99.90;;;;;;5071233;28;20090;-79
2021/05/02 05:00:51;;;;;;;69.03;34.90;;;9.10;99.90;;;;;;5075021;28;20430;-79
2021/05/02 05:03:17;;;;;;;74.72;34.28;;;9.20;99.90;;;;;;5075484;28;20035;-80
2021/05/02 05:05:44;;;;;;;72.50;34.72;;;9.20;99.90;;;;;;5073963;28;20032;-79
2021/05/02 05:08:10;;;;;;;78.03;34.78;;;9.20;99.90;;;;;;5073107;28;20016;-79
2021/05/02 05:10:35;;;;;;;73.38;35.40;;;9.20;99.90;;;;;;5056591;28;20036;-79
2021/05/02 05:13:02;;;;;;;72.32;33.15;;;9.30;99.90;;;;;;5054510;28;20040;-80
2021/05/02 05:15:27;;;;;;;64.32;29.83;;;9.30;99.90;;;;;;5055332;28;20029;-80
2021/05/02 05:17:53;;;;;;;62.40;29.02;;;9.40;99.90;;;;;;5060391;28;20032;-80
2021/05/02 05:20:18;;;;;;;64.65;29.98;;;9.40;99.90;;;;;;5074712;28;20021;-79
2021/05/02 05:22:44;;;;;;;52.47;25.27;;;9.40;99.90;;;;;;5062412;28;20474;-80
2021/05/02 05:25:10;;;;;;;48.10;24.38;;;9.50;99.90;;;;;;5055220;28;20514;-79
2021/05/02 05:27:36;;;;;;;51.63;25.70;;;9.50;99.90;;;;;;5060734;28;20071;-79
2021/05/02 05:30:03;;;;;;;51.35;22.92;;;9.50;99.90;;;;;;5072269;28;20432;-79
2021/05/02 05:32:29;;;;;;;44.28;23.73;;;9.60;99.90;;;;;;5075160;28;20385;-79
2021/05/02 05:34:54;;;;;;;44.25;23.00;;;9.60;99.90;;;;;;5074018;28;20119;-79
2021/05/02 05:37:20;;;;;;;39.10;20.67;;;9.60;99.90;;;;;;5075032;28;20036;-79
2021/05/02 05:39:47;;;;;;;41.42;21.65;;;9.70;99.90;;;;;;5075177;28;20024;-79
2021/05/02 05:42:12;;;;;;;38.85;19.95;;;9.70;99.90;;;;;;5075074;28;20027;-79
2021/05/02 05:44:38;;;;;;;37.75;19.88;;;9.70;99.90;;;;;;5073207;28;20530;-79
2021/05/02 05:47:04;;;;;;;35.38;18.38;;;9.70;99.90;;;;;;5063748;28;20107;-79
2021/05/02 05:49:29;;;;;;;33.10;17.20;;;9.80;99.90;;;;;;5063269;28;20058;-79
2021/05/02 05:51:55;;;;;;;29.90;16.23;;;9.80;99.90;;;;;;5062466;28;20017;-79
2021/05/02 05:54:22;;;;;;;30.02;16.92;;;9.80;99.90;;;;;;5062589;28;20479;-79
2021/05/02 05:56:48;;;;;;;30.60;17.33;;;9.80;99.90;;;;;;5062012;28;20367;-79
2021/05/02 05:59:14;;;;;;;27.67;16.17;;;9.80;99.90;;;;;;5063147;28;20025;-79
2021/05/02 06:01:40;;;;;;;30.33;16.42;;;9.80;99.90;;;;;;5061920;28;20021;-79
2021/05/02 06:04:06;;;;;;;26.42;14.68;;;9.80;99.90;;;;;;5064242;28;20386;-79
2021/05/02 06:06:36;;;;;;;26.55;14.88;;;9.80;99.90;;;;;;5062571;28;20032;-79
2021/05/02 06:09:04;;;;;;;20.73;12.50;;;9.80;99.90;;;;;;5062323;28;20029;-79
2021/05/02 06:11:30;;;;;;;23.63;14.48;;;9.80;99.90;;;;;;5061589;28;20020;-79
2021/05/02 06:13:57;;;;;;;20.65;11.63;;;9.80;99.90;;;;;;5062546;28;20509;-79
2021/05/02 06:16:24;;;;;;;19.27;11.60;;;9.80;99.90;;;;;;5062490;28;20055;-79
2021/05/02 06:18:54;;;;;;;22.48;13.00;;;9.80;99.90;;;;;;5062565;28;20025;-79
2021/05/02 06:21:20;;;;;;;18.02;11.43;;;9.80;99.90;;;;;;5062783;28;20150;-79
2021/05/02 06:23:47;;;;;;;16.45;11.10;;;9.90;99.90;;;;;;5062791;28;20025;-79
2021/05/02 06:26:15;;;;;;;22.33;11.82;;;9.90;99.90;;;;;;5062056;28;20104;-79
2021/05/02 06:28:41;;;;;;;17.63;11.98;;;9.90;99.90;;;;;;5061813;28;20027;-79
2021/05/02 06:31:08;;;;;;;16.75;11.18;;;10.00;99.90;;;;;;5063687;28;20488;-77
2021/05/02 06:33:37;;;;;;;15.20;10.48;;;9.90;99.90;;;;;;5062157;28;20091;-78
2021/05/02 06:36:03;;;;;;;15.70;10.50;;;9.90;99.90;;;;;;5068031;28;20021;-78
2021/05/02 06:38:28;;;;;;;17.17;10.60;;;9.90;99.90;;;;;;5059930;28;20043;-77
2021/05/02 06:40:54;;;;;;;16.52;9.38;;;9.90;99.90;;;;;;5073350;28;20474;-77
2021/05/02 06:43:20;;;;;;;14.68;8.75;;;9.90;99.90;;;;;;5071935;28;20108;-77
2021/05/02 06:45:46;;;;;;;15.48;10.68;;;9.90;99.90;;;;;;5071825;28;20025;-76
2021/05/02 06:48:11;;;;;;;15.85;9.95;;;9.80;99.90;;;;;;5073093;28;20107;-77
2021/05/02 06:50:37;;;;;;;18.42;11.13;;;9.80;99.90;;;;;;5072242;28;20020;-78
2021/05/02 06:53:03;;;;;;;12.98;9.98;;;9.80;99.90;;;;;;5071454;28;20032;-77
2021/05/02 06:55:29;;;;;;;14.00;10.18;;;9.80;99.90;;;;;;5068777;28;20875;-77
2021/05/02 06:57:55;;;;;;;12.45;8.98;;;9.90;99.90;;;;;;5064383;28;20395;-77
2021/05/02 07:00:22;;;;;;;21.45;13.85;;;9.90;99.90;;;;;;5063837;28;20074;-77
2021/05/02 07:02:47;;;;;;;14.85;10.18;;;9.90;99.90;;;;;;5062329;28;20168;-77
2021/05/02 07:05:13;;;;;;;15.40;11.30;;;9.90;99.90;;;;;;5063244;28;20025;-77
2021/05/02 07:07:39;;;;;;;16.17;13.35;;;9.90;99.90;;;;;;5067075;28;20066;-77
2021/05/02 07:10:05;;;;;;;10.60;7.78;;;9.90;99.90;;;;;;5066066;28;20471;-77
2021/05/02 07:12:32;;;;;;;10.18;8.13;;;10.00;99.90;;;;;;5060680;28;20079;-77
2021/05/02 07:14:58;;;;;;;10.25;8.00;;;10.00;99.90;;;;;;5062044;28;20024;-76
2021/05/02 07:17:24;;;;;;;10.75;7.65;;;10.00;99.90;;;;;;5060441;28;20086;-77
2021/05/02 07:19:49;;;;;;;10.35;7.00;;;10.00;99.90;;;;;;5059299;28;20021;-77
2021/05/02 07:22:17;;;;;;;9.18;7.07;;;10.10;99.90;;;;;;5063419;28;20029;-77
2021/05/02 07:24:43;;;;;;;10.95;8.00;;;10.10;99.90;;;;;;5061194;28;20020;-78
2021/05/02 07:27:09;;;;;;;12.90;8.40;;;10.20;99.90;;;;;;5061166;28;20032;-77
2021/05/02 07:29:34;;;;;;;10.07;7.30;;;10.20;99.90;;;;;;5060749;28;20061;-77
2021/05/02 07:32:00;;;;;;;8.77;6.68;;;10.30;99.90;;;;;;5061487;28;20379;-77
2021/05/02 07:34:26;;;;;;;7.85;6.00;;;10.30;99.90;;;;;;5060968;28;20501;-77
2021/05/02 07:36:55;;;;;;;7.88;5.93;;;10.30;99.90;;;;;;5059053;28;20025;-77
2021/05/02 07:39:21;;;;;;;8.23;6.53;;;10.30;99.90;;;;;;5063492;28;20409;-77
2021/05/02 07:41:47;;;;;;;8.57;6.25;;;10.40;99.90;;;;;;5062359;28;20017;-77
2021/05/02 07:44:13;;;;;;;8.10;6.05;;;10.40;99.90;;;;;;5059470;28;20016;-77
2021/05/02 07:46:38;;;;;;;7.97;6.10;;;10.50;99.90;;;;;;5062304;28;20024;-78
2021/05/02 07:49:04;;;;;;;7.25;5.90;;;10.50;99.90;;;;;;5060133;28;20139;-77
2021/05/02 07:51:30;;;;;;;5.38;4.78;;;10.50;99.90;;;;;;5072703;28;20028;-77
2021/05/02 07:53:55;;;;;;;6.13;5.53;;;10.50;99.90;;;;;;5071000;28;20032;-77
2021/05/02 07:56:21;;;;;;;8.85;5.97;;;10.60;99.90;;;;;;5071981;28;20394;-77
2021/05/02 07:58:47;;;;;;;8.85;6.25;;;10.60;99.90;;;;;;5069316;28;20119;-77
2021/05/02 08:01:12;;;;;;;9.73;6.95;;;10.60;99.90;;;;;;5071866;28;20048;-77
2021/05/02 08:03:38;;;;;;;10.63;7.05;;;10.70;99.90;;;;;;5071304;28;20048;-78
2021/05/02 08:06:04;;;;;;;12.30;7.85;;;10.70;99.90;;;;;;5067989;28;20017;-77
2021/05/02 08:08:30;;;;;;;12.00;8.90;;;10.70;99.90;;;;;;5060986;28;20060;-78
2021/05/02 08:10:55;;;;;;;11.18;7.60;;;10.80;99.90;;;;;;5059252;28;20096;-78
2021/05/02 08:13:21;;;;;;;10.27;7.72;;;10.80;99.90;;;;;;5050708;28;20523;-77
2021/05/02 08:15:47;;;;;;;9.13;7.22;;;10.80;99.90;;;;;;5063821;28;20017;-77
2021/05/02 08:18:13;;;;;;;11.63;7.80;;;10.90;99.90;;;;;;5059282;28;20028;-78
2021/05/02 08:20:39;;;;;;;11.70;8.25;;;11.00;99.90;;;;;;5059292;28;20017;-77
2021/05/02 08:23:04;;;;;;;15.73;13.55;;;11.10;99.90;;;;;;5063014;28;20479;-78
2021/05/02 08:25:30;;;;;;;13.15;9.25;;;11.20;99.90;;;;;;5065858;28;20359;-77
2021/05/02 08:27:56;;;;;;;13.82;10.25;;;11.20;99.90;;;;;;5063288;28;20426;-77
2021/05/02 08:30:22;;;;;;;15.40;13.48;;;11.30;99.90;;;;;;5063472;28;20462;-77
2021/05/02 08:32:47;;;;;;;11.10;8.63;;;11.40;99.90;;;;;;5065325;28;20155;-77
2021/05/02 08:35:13;;;;;;;12.60;8.75;;;11.40;99.90;;;;;;5062509;28;20043;-77
2021/05/02 08:37:39;;;;;;;12.45;8.50;;;11.40;99.90;;;;;;5064765;28;20044;-77
2021/05/02 08:40:07;;;;;;;9.52;7.60;;;11.40;99.90;;;;;;5058356;28;20025;-77
2021/05/02 08:42:33;;;;;;;11.02;7.07;;;11.40;99.90;;;;;;5055955;28;20070;-77
2021/05/02 08:45:02;;;;;;;11.18;8.52;;;11.40;99.90;;;;;;5055411;28;20028;-77
2021/05/02 08:47:35;;;;;;;8.20;6.30;;;11.40;99.90;;;;;;5061897;28;20020;-77
2021/05/02 08:50:05;;;;;;;;;;;11.40;99.90;;;;;;5068796;28;20399;-76
2021/05/02 08:52:31;;;;;;;11.45;8.35;;;11.40;99.90;;;;;;5063572;28;19922;-77
2021/05/02 08:54:56;;;;;;;11.23;8.85;;;11.40;99.90;;;;;;5062834;28;20028;-78
2021/05/02 08:57:22;;;;;;;9.98;7.85;;;11.40;99.90;;;;;;5067309;28;20051;-77
2021/05/02 08:59:48;;;;;;;9.40;7.20;;;11.40;99.90;;;;;;5065029;28;20388;-77
2021/05/02 09:02:24;;;;;;;8.90;6.15;;;11.50;99.90;;;;;;5064252;28;20111;-77
2021/05/02 09:05:03;;;;;;;11.05;7.38;;;11.50;99.90;;;;;;5063865;28;20017;-77
2021/05/02 09:07:42;;;;;;;10.88;7.68;;;11.50;99.90;;;;;;5062042;28;20107;-77
2021/05/02 09:10:10;;;;;;;14.55;11.02;;;11.50;99.90;;;;;;5065456;28;20008;-77
2021/05/02 09:12:38;;;;;;;23.50;15.10;;;11.60;99.90;;;;;;5063909;28;20314;-77
2021/05/02 09:15:08;;;;;;;10.10;8.13;;;11.70;99.90;;;;;;5051225;28;20049;-77
2021/05/02 09:17:55;;;;;;;58.30;36.15;;;11.70;99.90;;;;;;5053245;28;20386;-77
2021/05/02 09:20:40;;;;;;;66.80;40.75;;;11.70;99.90;;;;;;5053493;28;20409;-77
2021/05/02 09:23:06;;;;;;;16.05;9.80;;;11.70;99.90;;;;;;5057767;28;20104;-77
2021/05/02 09:25:47;;;;;;;26.52;18.00;;;11.70;99.90;;;;;;5054478;28;20064;-77
2021/05/02 09:28:12;;;;;;;17.88;12.27;;;11.70;99.90;;;;;;5054506;28;20103;-77
2021/05/02 09:30:38;;;;;;;17.08;9.90;;;11.70;99.90;;;;;;5064962;28;20107;-77
2021/05/02 09:33:04;;;;;;;13.73;9.75;;;11.80;99.90;;;;;;5054946;28;20482;-77
2021/05/02 09:35:32;;;;;;;18.45;12.38;;;11.90;99.90;;;;;;5063774;28;20017;-77
2021/05/02 09:38:27;;;;;;;23.20;15.02;;;12.00;99.90;;;;;;5074467;28;20043;-77
2021/05/02 09:40:54;;;;;;;44.65;25.00;;;12.00;99.90;;;;;;5044648;28;20383;-77
2021/05/02 09:43:41;;;;;;;47.92;28.20;;;11.90;99.90;;;;;;5065899;28;20448;-76
2021/05/02 09:46:33;;;;;;;41.70;24.10;;;12.00;99.90;;;;;;5064543;28;20126;-77
2021/05/02 09:49:01;;;;;;;48.85;28.77;;;12.00;99.90;;;;;;5064744;28;20114;-77
2021/05/02 09:51:29;;;;;;;45.72;27.58;;;12.00;99.90;;;;;;5060237;28;20497;-77
2021/05/02 09:54:12;;;;;;;43.15;26.95;;;12.00;99.90;;;;;;5052866;28;20506;-77
2021/05/02 09:56:38;;;;;;;47.92;28.35;;;12.00;99.90;;;;;;5054533;28;20024;-77
2021/05/02 09:59:05;;;;;;;46.60;26.08;;;12.00;99.90;;;;;;5061119;28;20549;-77
2021/05/02 10:01:31;;;;;;;49.08;28.50;;;12.00;99.90;;;;;;5064024;28;20017;-76
2021/05/02 10:03:59;;;;;;;41.13;26.83;;;11.90;99.90;;;;;;5061841;28;20158;-76
2021/05/02 10:06:45;;;;;;;42.55;25.67;;;11.90;99.90;;;;;;5060159;28;20021;-76
2021/05/02 10:09:12;;;;;;;38.70;22.67;;;11.90;99.90;;;;;;5061018;28;20382;-76
2021/05/02 10:11:38;;;;;;;37.92;21.65;;;11.70;99.90;;;;;;5061342;28;20017;-76
2021/05/02 10:14:04;;;;;;;40.13;21.60;;;11.70;99.90;;;;;;5062546;28;20079;-76
2021/05/02 10:16:30;;;;;;;39.33;23.08;;;11.70;99.90;;;;;;5061857;28;20475;-78
2021/05/02 10:18:58;;;;;;;35.75;20.92;;;11.60;99.90;;;;;;5060329;28;20022;-77
2021/05/02 10:21:24;;;;;;;39.60;22.25;;;11.60;99.90;;;;;;5062464;28;20074;-77
2021/05/02 10:23:49;;;;;;;33.00;19.65;;;11.60;99.90;;;;;;5062886;28;20065;-78
2021/05/02 10:26:15;;;;;;;27.15;16.92;;;11.60;99.90;;;;;;5060805;28;20025;-76
2021/05/02 10:28:42;;;;;;;29.35;18.48;;;11.50;99.90;;;;;;5063711;28;20381;-76
2021/05/02 10:31:09;;;;;;;21.92;14.10;;;11.50;99.90;;;;;;5063024;28;20021;-76
2021/05/02 10:33:39;;;;;;;21.83;13.02;;;11.40;99.90;;;;;;5057839;28;20495;-76
2021/05/02 10:36:26;;;;;;;18.42;12.63;;;11.30;99.90;;;;;;5062379;28;20023;-76
2021/05/02 10:38:56;;;;;;;16.38;11.13;;;11.20;99.90;;;;;;5062569;28;20043;-76
2021/05/02 10:41:36;;;;;;;12.10;8.50;;;11.00;99.90;;;;;;5061234;28;20379;-76
2021/05/02 10:44:05;;;;;;;10.10;7.15;;;10.90;99.90;;;;;;5061601;28;20031;-76
2021/05/02 10:46:52;;;;;;;10.27;7.70;;;10.80;99.90;;;;;;5061534;28;20078;-76
2021/05/02 10:49:18;;;;;;;13.63;9.30;;;10.80;99.90;;;;;;5062650;28;20031;-76
2021/05/02 10:51:44;;;;;;;8.48;7.10;;;10.70;99.90;;;;;;5060079;28;20027;-76
2021/05/02 10:54:16;;;;;;;13.95;9.80;;;10.50;99.90;;;;;;5061399;28;20106;-76
2021/05/02 10:56:58;;;;;;;13.10;9.88;;;10.50;99.90;;;;;;5060996;28;20021;-76
2021/05/02 10:59:47;;;;;;;15.35;10.45;;;10.40;99.90;;;;;;5061163;28;20040;-76
2021/05/02 11:02:37;;;;;;;20.52;12.70;;;10.20;99.90;;;;;;5061287;28;20029;-76
2021/05/02 11:05:03;;;;;;;12.85;9.13;;;10.10;99.90;;;;;;5058918;28;20029;-76
2021/05/02 11:07:36;;;;;;;20.85;12.88;;;10.00;99.90;;;;;;5061021;28;20032;-76
2021/05/02 11:10:05;;;;;;;19.60;12.13;;;9.90;99.90;;;;;;5053893;28;20024;-75
2021/05/02 11:12:31;;;;;;;15.63;9.35;;;9.80;99.90;;;;;;5061196;28;20028;-75
2021/05/02 11:14:57;;;;;;;18.00;10.50;;;9.80;99.90;;;;;;5062447;28;20058;-75
2021/05/02 11:17:24;;;;;;;18.15;12.20;;;9.70;99.90;;;;;;5061101;28;20036;-76
2021/05/02 11:19:52;;;;;;;12.52;8.98;;;9.70;99.90;;;;;;5052445;28;20460;-75
2021/05/02 11:22:19;;;;;;;10.18;8.50;;;9.60;99.90;;;;;;5064510;28;20073;-75
2021/05/02 11:24:47;;;;;;;7.90;6.28;;;9.50;99.90;;;;;;5065163;28;20048;-76
2021/05/02 11:32:26;;;;;;;13.82;8.75;;;9.20;99.90;;;;;;5058095;28;20028;-75
2021/05/02 11:34:52;;;;;;;14.57;10.35;;;9.10;99.90;;;;;;5049926;28;20075;-75
2021/05/02 11:37:36;;;;;;;14.13;10.93;;;9.10;99.90;;;;;;5064992;28;20060;-76
2021/05/02 11:40:25;;;;;;;18.40;11.40;;;9.00;99.90;;;;;;5063456;28;20561;-75
2021/05/02 11:43:07;;;;;;;23.70;12.73;;;8.90;99.90;;;;;;5082978;28;20111;-75
2021/05/02 11:45:56;;;;;;;23.30;11.75;;;8.80;99.90;;;;;;5053767;28;20036;-75
2021/05/02 11:48:36;;;;;;;12.45;8.63;;;8.70;99.90;;;;;;5056881;28;20382;-76
2021/05/02 11:51:07;;;;;;;12.80;9.05;;;8.70;99.90;;;;;;5060688;28;20027;-75
2021/05/02 11:53:47;;;;;;;59.85;25.40;;;8.60;99.90;;;;;;5055940;28;20033;-75
2021/05/02 11:56:15;;;;;;;46.20;22.23;;;8.60;99.90;;;;;;5056881;28;20493;-75
2021/05/02 11:58:41;;;;;;;43.63;21.83;;;8.50;99.90;;;;;;5058271;28;20024;-75
2021/05/02 12:01:14;;;;;;;46.90;23.83;;;8.40;99.90;;;;;;5059502;28;20355;-75
2021/05/02 12:03:40;;;;;;;54.78;27.92;;;8.30;99.90;;;;;;5056824;28;20048;-75
2021/05/02 12:06:07;;;;;;;24.08;15.75;;;8.20;99.90;;;;;;5056161;28;20501;-75
2021/05/02 12:08:33;;;;;;;27.10;17.75;;;8.10;99.90;;;;;;5063604;28;20021;-75
2021/05/02 12:11:01;;;;;;;29.08;17.15;;;8.10;99.90;;;;;;5057875;28;20538;-75
2021/05/02 12:13:34;;;;;;;26.38;17.08;;;8.00;99.90;;;;;;5060287;28;20065;-76
2021/05/02 12:16:24;;;;;;;38.97;20.38;;;8.00;99.90;;;;;;5065878;28;20029;-76
2021/05/02 12:18:52;;;;;;;62.45;30.58;;;8.00;99.90;;;;;;5062425;28;20075;-76
2021/05/02 12:21:31;;;;;;;34.85;18.92;;;7.90;99.90;;;;;;5067391;28;20044;-76
2021/05/02 12:24:09;;;;;;;17.77;10.07;;;7.90;99.90;;;;;;5067339;28;20039;-76
2021/05/02 12:26:41;;;;;;;11.48;6.68;;;8.00;99.90;;;;;;5065619;28;20621;-76
2021/05/02 12:29:09;;;;;;;20.80;11.20;;;8.10;99.90;;;;;;5066878;28;20059;-75
2021/05/02 12:31:35;;;;;;;22.23;10.35;;;8.20;99.90;;;;;;5070970;28;20024;-76
2021/05/02 12:34:05;;;;;;;16.10;9.73;;;8.20;99.90;;;;;;5066067;28;20032;-76
2021/05/02 12:36:31;;;;;;;16.67;10.13;;;8.20;99.90;;;;;;5067845;28;20020;-76
2021/05/02 12:39:09;;;;;;;13.40;7.43;;;8.30;99.90;;;;;;5066595;28;20093;-76
2021/05/02 12:41:36;;;;;;;8.57;4.80;;;8.20;99.90;;;;;;5071165;28;20036;-75
2021/05/02 12:44:25;;;;;;;10.85;5.53;;;8.20;99.90;;;;;;5060184;28;20025;-76
2021/05/02 12:46:53;;;;;;;19.88;9.20;;;8.10;99.90;;;;;;5066145;28;20021;-76
2021/05/02 12:49:25;;;;;;;20.65;9.02;;;8.00;99.90;;;;;;5061658;28;20492;-76
2021/05/02 12:51:53;;;;;;;14.43;8.25;;;8.10;99.90;;;;;;5059328;28;20029;-76
2021/05/02 12:54:27;;;;;;;5.93;4.47;;;8.10;99.90;;;;;;5058995;28;20036;-75